sensor_id;sensor_type;location;lat;lon;timestamp;P1;durP1;ratioP1;P2;durP2;ratioP2
20365;SDS011;10341;49.894;8.822;2024-03-02T00:04:44;9.88;;;5.80;;
20365;SDS011;10341;49.894;8.822;2024-03-02T00:10:11;8.00;;;4.68;;
20365;SDS011;10341;49.894;8.822;2024-03-02T00:15:48;8.30;;;5.15;;
20365;SDS011;10341;49.894;8.822;2024-03-02T00:21:10;6.82;;;4.95;;
20365;SDS011;10341;49.894;8.822;2024-03-02T00:31:49;8.60;;;5.35;;
20365;SDS011;10341;49.894;8.822;2024-03-02T00:37:08;12.68;;;7.30;;
20365;SDS011;10341;49.894;8.822;2024-03-02T00:42:28;9.45;;;5.50;;
20365;SDS011;10341;49.894;8.822;2024-03-02T00:47:47;9.13;;;5.03;;
20365;SDS011;10341;49.894;8.822;2024-03-02T00:58:30;13.25;;;5.50;;
20365;SDS011;10341;49.894;8.822;2024-03-02T01:03:49;7.72;;;4.80;;
20365;SDS011;10341;49.894;8.822;2024-03-02T01:14:27;7.40;;;4.43;;
20365;SDS011;10341;49.894;8.822;2024-03-02T01:25:06;5.05;;;3.83;;
20365;SDS011;10341;49.894;8.822;2024-03-02T01:30:27;9.95;;;4.82;;
20365;SDS011;10341;49.894;8.822;2024-03-02T01:35:46;9.52;;;5.35;;
20365;SDS011;10341;49.894;8.822;2024-03-02T01:41:06;9.57;;;6.30;;
20365;SDS011;10341;49.894;8.822;2024-03-02T01:46:26;12.02;;;6.18;;
20365;SDS011;10341;49.894;8.822;2024-03-02T01:57:04;11.43;;;6.82;;
20365;SDS011;10341;49.894;8.822;2024-03-02T02:02:24;14.00;;;7.47;;
20365;SDS011;10341;49.894;8.822;2024-03-02T02:07:43;15.13;;;8.18;;
20365;SDS011;10341;49.894;8.822;2024-03-02T02:13:03;13.63;;;7.97;;
20365;SDS011;10341;49.894;8.822;2024-03-02T02:18:22;12.57;;;6.78;;
20365;SDS011;10341;49.894;8.822;2024-03-02T02:29:05;9.18;;;5.25;;
20365;SDS011;10341;49.894;8.822;2024-03-02T02:34:24;9.80;;;5.82;;
20365;SDS011;10341;49.894;8.822;2024-03-02T02:45:06;8.70;;;5.60;;
20365;SDS011;10341;49.894;8.822;2024-03-02T02:50:25;11.85;;;6.15;;
20365;SDS011;10341;49.894;8.822;2024-03-02T02:55:45;12.85;;;6.80;;
20365;SDS011;10341;49.894;8.822;2024-03-02T03:06:24;12.73;;;6.07;;
20365;SDS011;10341;49.894;8.822;2024-03-02T03:11:43;10.95;;;6.60;;
20365;SDS011;10341;49.894;8.822;2024-03-02T03:22:22;15.13;;;7.93;;
20365;SDS011;10341;49.894;8.822;2024-03-02T03:27:41;13.00;;;7.32;;
20365;SDS011;10341;49.894;8.822;2024-03-02T03:33:00;16.63;;;8.50;;
20365;SDS011;10341;49.894;8.822;2024-03-02T03:38:19;14.18;;;7.72;;
20365;SDS011;10341;49.894;8.822;2024-03-02T03:43:38;16.73;;;8.55;;
20365;SDS011;10341;49.894;8.822;2024-03-02T03:48:58;14.25;;;8.40;;
20365;SDS011;10341;49.894;8.822;2024-03-02T03:54:17;16.65;;;8.80;;
20365;SDS011;10341;49.894;8.822;2024-03-02T03:59:37;15.45;;;8.88;;
20365;SDS011;10341;49.894;8.822;2024-03-02T04:04:56;16.35;;;9.48;;
20365;SDS011;10341;49.894;8.822;2024-03-02T04:10:15;15.15;;;8.27;;
20365;SDS011;10341;49.894;8.822;2024-03-02T04:15:35;15.40;;;7.65;;
20365;SDS011;10341;49.894;8.822;2024-03-02T04:20:55;17.10;;;8.13;;
20365;SDS011;10341;49.894;8.822;2024-03-02T04:26:14;16.45;;;8.70;;
20365;SDS011;10341;49.894;8.822;2024-03-02T04:31:38;15.90;;;8.43;;
20365;SDS011;10341;49.894;8.822;2024-03-02T04:36:57;14.80;;;8.05;;
20365;SDS011;10341;49.894;8.822;2024-03-02T04:42:17;13.35;;;7.22;;
20365;SDS011;10341;49.894;8.822;2024-03-02T04:47:36;12.43;;;7.38;;
20365;SDS011;10341;49.894;8.822;2024-03-02T04:52:55;14.65;;;7.90;;
20365;SDS011;10341;49.894;8.822;2024-03-02T04:58:14;15.00;;;8.65;;
20365;SDS011;10341;49.894;8.822;2024-03-02T05:03:34;16.58;;;8.85;;
20365;SDS011;10341;49.894;8.822;2024-03-02T05:08:53;17.58;;;8.95;;
20365;SDS011;10341;49.894;8.822;2024-03-02T05:14:12;15.65;;;8.80;;
20365;SDS011;10341;49.894;8.822;2024-03-02T05:19:32;17.02;;;8.65;;
20365;SDS011;10341;49.894;8.822;2024-03-02T05:24:51;15.68;;;8.95;;
20365;SDS011;10341;49.894;8.822;2024-03-02T05:30:11;14.63;;;8.30;;
20365;SDS011;10341;49.894;8.822;2024-03-02T05:40:49;19.50;;;9.15;;
20365;SDS011;10341;49.894;8.822;2024-03-02T05:46:09;16.13;;;8.85;;
20365;SDS011;10341;49.894;8.822;2024-03-02T05:51:28;17.60;;;9.32;;
20365;SDS011;10341;49.894;8.822;2024-03-02T05:56:47;17.48;;;8.98;;
20365;SDS011;10341;49.894;8.822;2024-03-02T06:02:06;18.67;;;10.48;;
20365;SDS011;10341;49.894;8.822;2024-03-02T06:07:26;16.42;;;9.02;;
20365;SDS011;10341;49.894;8.822;2024-03-02T06:12:45;20.70;;;10.98;;
20365;SDS011;10341;49.894;8.822;2024-03-02T06:18:04;23.05;;;11.20;;
20365;SDS011;10341;49.894;8.822;2024-03-02T06:23:25;18.77;;;9.88;;
20365;SDS011;10341;49.894;8.822;2024-03-02T06:28:45;20.35;;;10.27;;
20365;SDS011;10341;49.894;8.822;2024-03-02T06:39:23;20.05;;;9.55;;
20365;SDS011;10341;49.894;8.822;2024-03-02T06:44:44;16.70;;;9.30;;
20365;SDS011;10341;49.894;8.822;2024-03-02T06:55:23;20.80;;;10.43;;
20365;SDS011;10341;49.894;8.822;2024-03-02T07:00:43;18.55;;;10.20;;
20365;SDS011;10341;49.894;8.822;2024-03-02T07:06:06;19.98;;;9.77;;
20365;SDS011;10341;49.894;8.822;2024-03-02T07:11:25;20.52;;;10.55;;
20365;SDS011;10341;49.894;8.822;2024-03-02T07:16:45;18.83;;;10.32;;
20365;SDS011;10341;49.894;8.822;2024-03-02T07:22:07;21.83;;;10.65;;
20365;SDS011;10341;49.894;8.822;2024-03-02T07:27:27;19.67;;;10.13;;
20365;SDS011;10341;49.894;8.822;2024-03-02T07:32:49;19.15;;;9.93;;
20365;SDS011;10341;49.894;8.822;2024-03-02T07:38:09;21.17;;;10.85;;
20365;SDS011;10341;49.894;8.822;2024-03-02T07:43:28;20.00;;;10.80;;
20365;SDS011;10341;49.894;8.822;2024-03-02T07:48:47;23.55;;;12.30;;
20365;SDS011;10341;49.894;8.822;2024-03-02T07:54:06;21.50;;;11.18;;
20365;SDS011;10341;49.894;8.822;2024-03-02T07:59:27;22.25;;;12.25;;
20365;SDS011;10341;49.894;8.822;2024-03-02T08:10:06;18.30;;;10.13;;
20365;SDS011;10341;49.894;8.822;2024-03-02T08:15:26;23.95;;;11.95;;
20365;SDS011;10341;49.894;8.822;2024-03-02T08:20:45;21.90;;;12.57;;
20365;SDS011;10341;49.894;8.822;2024-03-02T08:26:05;24.27;;;11.45;;
20365;SDS011;10341;49.894;8.822;2024-03-02T08:31:24;18.43;;;10.10;;
20365;SDS011;10341;49.894;8.822;2024-03-02T08:36:43;13.32;;;9.13;;
20365;SDS011;10341;49.894;8.822;2024-03-02T08:42:02;18.77;;;10.23;;
20365;SDS011;10341;49.894;8.822;2024-03-02T08:47:23;12.13;;;8.30;;
20365;SDS011;10341;49.894;8.822;2024-03-02T08:52:42;13.48;;;8.43;;
20365;SDS011;10341;49.894;8.822;2024-03-02T08:58:02;15.48;;;9.02;;
20365;SDS011;10341;49.894;8.822;2024-03-02T09:03:22;14.35;;;8.32;;
20365;SDS011;10341;49.894;8.822;2024-03-02T09:08:41;15.70;;;9.67;;
20365;SDS011;10341;49.894;8.822;2024-03-02T09:14:00;12.73;;;8.43;;
20365;SDS011;10341;49.894;8.822;2024-03-02T09:19:20;12.73;;;8.33;;
20365;SDS011;10341;49.894;8.822;2024-03-02T09:24:39;13.63;;;8.70;;
20365;SDS011;10341;49.894;8.822;2024-03-02T09:29:58;11.07;;;7.40;;
20365;SDS011;10341;49.894;8.822;2024-03-02T09:40:37;9.38;;;6.85;;
20365;SDS011;10341;49.894;8.822;2024-03-02T09:45:56;9.85;;;7.55;;
20365;SDS011;10341;49.894;8.822;2024-03-02T09:56:38;9.68;;;6.93;;
20365;SDS011;10341;49.894;8.822;2024-03-02T10:01:58;11.50;;;7.90;;
20365;SDS011;10341;49.894;8.822;2024-03-02T10:07:19;10.63;;;7.32;;
20365;SDS011;10341;49.894;8.822;2024-03-02T10:12:38;10.73;;;7.28;;
20365;SDS011;10341;49.894;8.822;2024-03-02T10:17:58;10.10;;;7.10;;
20365;SDS011;10341;49.894;8.822;2024-03-02T10:23:17;10.45;;;6.50;;
20365;SDS011;10341;49.894;8.822;2024-03-02T10:28:36;9.87;;;7.60;;
20365;SDS011;10341;49.894;8.822;2024-03-02T10:34:06;7.97;;;5.80;;
20365;SDS011;10341;49.894;8.822;2024-03-02T10:39:27;7.78;;;5.22;;
20365;SDS011;10341;49.894;8.822;2024-03-02T10:44:47;7.15;;;5.97;;
20365;SDS011;10341;49.894;8.822;2024-03-02T10:50:08;7.78;;;6.00;;
20365;SDS011;10341;49.894;8.822;2024-03-02T10:55:28;5.60;;;5.00;;
20365;SDS011;10341;49.894;8.822;2024-03-02T11:00:48;5.35;;;4.72;;
20365;SDS011;10341;49.894;8.822;2024-03-02T11:06:08;5.93;;;4.22;;
20365;SDS011;10341;49.894;8.822;2024-03-02T11:11:29;6.88;;;4.63;;
20365;SDS011;10341;49.894;8.822;2024-03-02T11:16:53;4.32;;;3.90;;
20365;SDS011;10341;49.894;8.822;2024-03-02T11:22:13;4.63;;;3.80;;
20365;SDS011;10341;49.894;8.822;2024-03-02T11:27:58;4.57;;;2.60;;
20365;SDS011;10341;49.894;8.822;2024-03-02T11:33:23;2.03;;;1.60;;
20365;SDS011;10341;49.894;8.822;2024-03-02T11:38:43;3.13;;;1.50;;
20365;SDS011;10341;49.894;8.822;2024-03-02T11:44:04;1.48;;;1.38;;
20365;SDS011;10341;49.894;8.822;2024-03-02T11:49:37;1.75;;;1.27;;
20365;SDS011;10341;49.894;8.822;2024-03-02T11:54:57;2.15;;;1.50;;
20365;SDS011;10341;49.894;8.822;2024-03-02T12:00:17;2.70;;;1.52;;
20365;SDS011;10341;49.894;8.822;2024-03-02T12:05:37;2.10;;;1.88;;
20365;SDS011;10341;49.894;8.822;2024-03-02T12:16:22;5.00;;;3.30;;
20365;SDS011;10341;49.894;8.822;2024-03-02T12:21:45;4.05;;;2.83;;
20365;SDS011;10341;49.894;8.822;2024-03-02T12:27:05;3.03;;;2.50;;
20365;SDS011;10341;49.894;8.822;2024-03-02T12:32:25;4.20;;;3.30;;
20365;SDS011;10341;49.894;8.822;2024-03-02T12:37:48;5.25;;;3.28;;
20365;SDS011;10341;49.894;8.822;2024-03-02T12:43:08;5.00;;;3.22;;
20365;SDS011;10341;49.894;8.822;2024-03-02T12:48:27;4.95;;;3.10;;
20365;SDS011;10341;49.894;8.822;2024-03-02T12:53:53;4.10;;;2.75;;
20365;SDS011;10341;49.894;8.822;2024-03-02T12:59:21;2.38;;;2.17;;
20365;SDS011;10341;49.894;8.822;2024-03-02T13:04:51;2.88;;;2.20;;
20365;SDS011;10341;49.894;8.822;2024-03-02T13:10:12;2.13;;;1.90;;
20365;SDS011;10341;49.894;8.822;2024-03-02T13:15:35;3.00;;;2.25;;
20365;SDS011;10341;49.894;8.822;2024-03-02T13:20:54;2.85;;;2.42;;
20365;SDS011;10341;49.894;8.822;2024-03-02T13:26:15;4.05;;;2.55;;
20365;SDS011;10341;49.894;8.822;2024-03-02T13:31:34;4.28;;;2.33;;
20365;SDS011;10341;49.894;8.822;2024-03-02T13:36:54;2.20;;;1.75;;
20365;SDS011;10341;49.894;8.822;2024-03-02T13:52:53;1.88;;;1.52;;
20365;SDS011;10341;49.894;8.822;2024-03-02T13:58:13;2.50;;;1.63;;
20365;SDS011;10341;49.894;8.822;2024-03-02T14:08:52;1.88;;;1.40;;
20365;SDS011;10341;49.894;8.822;2024-03-02T14:14:12;1.33;;;1.23;;
20365;SDS011;10341;49.894;8.822;2024-03-02T14:24:51;2.75;;;1.10;;
20365;SDS011;10341;49.894;8.822;2024-03-02T14:30:11;1.50;;;1.00;;
20365;SDS011;10341;49.894;8.822;2024-03-02T14:35:31;1.38;;;1.02;;
20365;SDS011;10341;49.894;8.822;2024-03-02T14:40:50;2.20;;;0.80;;
20365;SDS011;10341;49.894;8.822;2024-03-02T14:46:10;1.33;;;1.05;;
20365;SDS011;10341;49.894;8.822;2024-03-02T14:56:49;1.30;;;0.77;;
20365;SDS011;10341;49.894;8.822;2024-03-02T15:02:09;1.67;;;0.90;;
20365;SDS011;10341;49.894;8.822;2024-03-02T15:07:28;1.30;;;0.98;;
20365;SDS011;10341;49.894;8.822;2024-03-02T15:12:48;0.88;;;0.77;;
20365;SDS011;10341;49.894;8.822;2024-03-02T15:18:07;0.70;;;0.60;;
20365;SDS011;10341;49.894;8.822;2024-03-02T15:23:27;1.08;;;0.75;;
20365;SDS011;10341;49.894;8.822;2024-03-02T15:28:48;2.65;;;0.70;;
20365;SDS011;10341;49.894;8.822;2024-03-02T15:34:08;1.45;;;0.70;;
20365;SDS011;10341;49.894;8.822;2024-03-02T15:39:28;2.20;;;0.73;;
20365;SDS011;10341;49.894;8.822;2024-03-02T15:44:47;0.70;;;0.60;;
20365;SDS011;10341;49.894;8.822;2024-03-02T15:50:07;2.73;;;0.77;;
20365;SDS011;10341;49.894;8.822;2024-03-02T15:55:26;1.65;;;0.93;;
20365;SDS011;10341;49.894;8.822;2024-03-02T16:00:46;1.98;;;1.27;;
20365;SDS011;10341;49.894;8.822;2024-03-02T16:06:05;3.40;;;2.20;;
20365;SDS011;10341;49.894;8.822;2024-03-02T16:11:25;3.17;;;1.88;;
20365;SDS011;10341;49.894;8.822;2024-03-02T16:16:45;3.63;;;2.13;;
20365;SDS011;10341;49.894;8.822;2024-03-02T16:22:04;4.07;;;2.42;;
20365;SDS011;10341;49.894;8.822;2024-03-02T16:27:25;4.85;;;2.63;;
20365;SDS011;10341;49.894;8.822;2024-03-02T16:32:47;3.88;;;2.50;;
20365;SDS011;10341;49.894;8.822;2024-03-02T16:38:06;4.60;;;3.30;;
20365;SDS011;10341;49.894;8.822;2024-03-02T16:43:26;6.10;;;3.30;;
20365;SDS011;10341;49.894;8.822;2024-03-02T16:48:45;5.95;;;2.92;;
20365;SDS011;10341;49.894;8.822;2024-03-02T16:54:04;6.78;;;2.92;;
20365;SDS011;10341;49.894;8.822;2024-03-02T16:59:23;4.07;;;2.78;;
20365;SDS011;10341;49.894;8.822;2024-03-02T17:04:43;4.03;;;2.60;;
20365;SDS011;10341;49.894;8.822;2024-03-02T17:10:03;3.55;;;2.20;;
20365;SDS011;10341;49.894;8.822;2024-03-02T17:15:23;12.32;;;6.28;;
20365;SDS011;10341;49.894;8.822;2024-03-02T17:20:42;3.53;;;2.58;;
20365;SDS011;10341;49.894;8.822;2024-03-02T17:26:01;5.70;;;2.72;;
20365;SDS011;10341;49.894;8.822;2024-03-02T17:31:21;4.25;;;2.08;;
20365;SDS011;10341;49.894;8.822;2024-03-02T17:36:41;2.08;;;1.75;;
20365;SDS011;10341;49.894;8.822;2024-03-02T17:42:00;3.38;;;1.92;;
20365;SDS011;10341;49.894;8.822;2024-03-02T17:47:19;3.63;;;2.20;;
20365;SDS011;10341;49.894;8.822;2024-03-02T17:52:39;3.05;;;2.17;;
20365;SDS011;10341;49.894;8.822;2024-03-02T17:57:58;3.65;;;1.85;;
20365;SDS011;10341;49.894;8.822;2024-03-02T18:03:17;4.15;;;2.13;;
20365;SDS011;10341;49.894;8.822;2024-03-02T18:08:37;2.78;;;2.20;;
20365;SDS011;10341;49.894;8.822;2024-03-02T18:13:56;4.67;;;3.03;;
20365;SDS011;10341;49.894;8.822;2024-03-02T18:19:15;7.43;;;4.60;;
20365;SDS011;10341;49.894;8.822;2024-03-02T18:24:34;7.22;;;3.47;;
20365;SDS011;10341;49.894;8.822;2024-03-02T18:29:53;6.90;;;4.73;;
20365;SDS011;10341;49.894;8.822;2024-03-02T18:35:13;9.10;;;6.45;;
20365;SDS011;10341;49.894;8.822;2024-03-02T18:40:32;8.13;;;5.15;;
20365;SDS011;10341;49.894;8.822;2024-03-02T18:45:52;6.65;;;3.78;;
20365;SDS011;10341;49.894;8.822;2024-03-02T18:51:14;6.57;;;3.17;;
20365;SDS011;10341;49.894;8.822;2024-03-02T18:56:33;6.38;;;3.95;;
20365;SDS011;10341;49.894;8.822;2024-03-02T19:01:53;6.43;;;4.43;;
20365;SDS011;10341;49.894;8.822;2024-03-02T19:07:12;8.70;;;5.35;;
20365;SDS011;10341;49.894;8.822;2024-03-02T19:17:51;12.00;;;7.10;;
20365;SDS011;10341;49.894;8.822;2024-03-02T19:23:11;14.77;;;7.18;;
20365;SDS011;10341;49.894;8.822;2024-03-02T19:28:30;11.02;;;6.88;;
20365;SDS011;10341;49.894;8.822;2024-03-02T19:33:50;11.73;;;6.80;;
20365;SDS011;10341;49.894;8.822;2024-03-02T19:39:10;12.00;;;6.82;;
20365;SDS011;10341;49.894;8.822;2024-03-02T19:44:29;13.35;;;8.27;;
20365;SDS011;10341;49.894;8.822;2024-03-02T19:49:51;13.45;;;7.57;;
20365;SDS011;10341;49.894;8.822;2024-03-02T19:55:10;14.40;;;7.95;;
20365;SDS011;10341;49.894;8.822;2024-03-02T20:00:31;18.27;;;9.15;;
20365;SDS011;10341;49.894;8.822;2024-03-02T20:05:50;17.83;;;9.40;;
20365;SDS011;10341;49.894;8.822;2024-03-02T20:11:10;18.77;;;10.23;;
20365;SDS011;10341;49.894;8.822;2024-03-02T20:16:29;15.80;;;8.88;;
20365;SDS011;10341;49.894;8.822;2024-03-02T20:21:49;18.00;;;10.48;;
20365;SDS011;10341;49.894;8.822;2024-03-02T20:27:08;18.00;;;9.73;;
20365;SDS011;10341;49.894;8.822;2024-03-02T20:32:27;18.73;;;9.55;;
20365;SDS011;10341;49.894;8.822;2024-03-02T20:37:47;19.57;;;10.57;;
20365;SDS011;10341;49.894;8.822;2024-03-02T20:43:06;20.80;;;11.27;;
20365;SDS011;10341;49.894;8.822;2024-03-02T20:48:25;22.02;;;11.18;;
20365;SDS011;10341;49.894;8.822;2024-03-02T20:53:47;20.77;;;11.43;;
20365;SDS011;10341;49.894;8.822;2024-03-02T20:59:07;24.83;;;12.27;;
20365;SDS011;10341;49.894;8.822;2024-03-02T21:09:46;21.77;;;11.27;;
20365;SDS011;10341;49.894;8.822;2024-03-02T21:15:05;24.95;;;12.43;;
20365;SDS011;10341;49.894;8.822;2024-03-02T21:20:25;22.50;;;11.68;;
20365;SDS011;10341;49.894;8.822;2024-03-02T21:25:44;23.67;;;12.07;;
20365;SDS011;10341;49.894;8.822;2024-03-02T21:31:04;20.38;;;10.50;;
20365;SDS011;10341;49.894;8.822;2024-03-02T21:36:23;19.98;;;10.98;;
20365;SDS011;10341;49.894;8.822;2024-03-02T21:41:42;19.80;;;10.68;;
20365;SDS011;10341;49.894;8.822;2024-03-02T21:47:01;18.50;;;9.55;;
20365;SDS011;10341;49.894;8.822;2024-03-02T21:52:20;22.10;;;10.52;;
20365;SDS011;10341;49.894;8.822;2024-03-02T21:57:40;22.58;;;10.75;;
20365;SDS011;10341;49.894;8.822;2024-03-02T22:02:59;17.40;;;9.57;;
20365;SDS011;10341;49.894;8.822;2024-03-02T22:08:20;17.08;;;9.18;;
20365;SDS011;10341;49.894;8.822;2024-03-02T22:13:39;19.80;;;11.00;;
20365;SDS011;10341;49.894;8.822;2024-03-02T22:18:58;25.08;;;11.80;;
20365;SDS011;10341;49.894;8.822;2024-03-02T22:24:18;21.02;;;11.10;;
20365;SDS011;10341;49.894;8.822;2024-03-02T22:29:37;21.40;;;10.77;;
20365;SDS011;10341;49.894;8.822;2024-03-02T22:34:59;20.48;;;10.05;;
20365;SDS011;10341;49.894;8.822;2024-03-02T22:40:18;26.30;;;12.73;;
20365;SDS011;10341;49.894;8.822;2024-03-02T22:45:38;24.17;;;12.63;;
20365;SDS011;10341;49.894;8.822;2024-03-02T22:50:57;25.45;;;12.25;;
20365;SDS011;10341;49.894;8.822;2024-03-02T22:56:17;28.90;;;13.55;;
20365;SDS011;10341;49.894;8.822;2024-03-02T23:01:37;27.15;;;13.60;;
20365;SDS011;10341;49.894;8.822;2024-03-02T23:06:56;28.90;;;13.97;;
20365;SDS011;10341;49.894;8.822;2024-03-02T23:12:16;26.88;;;12.77;;
20365;SDS011;10341;49.894;8.822;2024-03-02T23:17:35;25.60;;;13.50;;
20365;SDS011;10341;49.894;8.822;2024-03-02T23:22:56;25.10;;;13.02;;
20365;SDS011;10341;49.894;8.822;2024-03-02T23:28:15;30.37;;;14.30;;
20365;SDS011;10341;49.894;8.822;2024-03-02T23:33:34;28.52;;;14.35;;
20365;SDS011;10341;49.894;8.822;2024-03-02T23:38:53;32.37;;;14.87;;
20365;SDS011;10341;49.894;8.822;2024-03-02T23:44:13;31.70;;;14.73;;
20365;SDS011;10341;49.894;8.822;2024-03-02T23:49:32;28.13;;;14.75;;
20365;SDS011;10341;49.894;8.822;2024-03-02T23:54:52;32.22;;;14.57;;
